createdAt,value
2018-01-19T00:00:40.110Z,94.85
2018-01-19T00:03:07.785Z,94.63
2018-01-19T00:05:35.505Z,94.58
2018-01-19T00:08:03.212Z,94.65
2018-01-19T00:10:30.894Z,94.68
2018-01-19T00:12:58.633Z,94.58
2018-01-19T00:15:27.018Z,94.84
2018-01-19T00:17:54.826Z,94.77
2018-01-19T00:20:22.493Z,94.55
2018-01-19T00:22:50.231Z,94.36
2018-01-19T00:25:18.081Z,94.54
2018-01-19T00:27:45.798Z,94.76
2018-01-19T00:30:13.487Z,94.73
2018-01-19T00:32:41.231Z,94.67
2018-01-19T00:35:08.959Z,94.65
2018-01-19T00:37:36.716Z,94.59
2018-01-19T00:40:04.524Z,95.11
2018-01-19T00:42:32.219Z,95.08
2018-01-19T00:44:59.922Z,95.36
2018-01-19T00:47:27.737Z,95.49
2018-01-19T00:49:55.443Z,95.52
2018-01-19T00:52:23.156Z,95.73
2018-01-19T00:54:50.904Z,95.79
2018-01-19T00:57:18.647Z,96.17
2018-01-19T00:59:46.412Z,96.46
2018-01-19T01:02:17.834Z,96.42
2018-01-19T01:04:45.930Z,96.26
2018-01-19T01:07:13.640Z,96.49
2018-01-19T01:09:41.593Z,96.41
2018-01-19T01:12:09.348Z,96.23
2018-01-19T01:14:37.057Z,95.94
2018-01-19T01:17:04.802Z,95.59
2018-01-19T01:19:32.522Z,95.41
2018-01-19T01:22:00.225Z,95.45
2018-01-19T01:24:27.943Z,95.22
2018-01-19T01:26:55.640Z,94.87
2018-01-19T01:29:23.362Z,94.64
2018-01-19T01:31:51.063Z,94.02
2018-01-19T01:34:18.758Z,93.93
2018-01-19T01:36:46.521Z,94.23
2018-01-19T01:39:14.203Z,94.23
2018-01-19T01:41:41.868Z,94.33
2018-01-19T01:44:09.842Z,94.36
2018-01-19T01:46:37.596Z,94.59
2018-01-19T01:49:12.239Z,94.62
2018-01-19T01:51:48.223Z,94.57
2018-01-19T01:54:15.927Z,94.63
2018-01-19T01:56:43.647Z,95.06
2018-01-19T01:59:11.424Z,95.20
2018-01-19T02:01:39.226Z,95.24
2018-01-19T02:04:06.984Z,95.09
2018-01-19T02:06:34.776Z,95.05
2018-01-19T02:09:02.470Z,95.06
2018-01-19T02:11:30.200Z,95.23
2018-01-19T02:13:57.948Z,95.46
2018-01-19T02:16:25.630Z,95.33
2018-01-19T02:18:53.441Z,95.13
2018-01-19T02:21:21.108Z,95.04
2018-01-19T02:23:48.821Z,94.91
2018-01-19T02:26:16.494Z,94.58
2018-01-19T02:28:44.216Z,94.53
2018-01-19T02:31:11.911Z,94.66
2018-01-19T02:33:39.630Z,94.55
2018-01-19T02:36:07.312Z,94.66
2018-01-19T02:38:35.032Z,94.87
2018-01-19T02:41:02.725Z,95.23
2018-01-19T02:43:30.437Z,95.26
2018-01-19T02:45:58.177Z,95.24
2018-01-19T02:48:26.005Z,95.28
2018-01-19T02:50:53.676Z,95.42
2018-01-19T02:53:21.430Z,95.65
2018-01-19T02:55:49.088Z,95.60
2018-01-19T02:58:16.764Z,95.42
2018-01-19T03:00:44.485Z,95.35
2018-01-19T03:03:12.139Z,95.15
2018-01-19T03:05:39.824Z,95.09
2018-01-19T03:08:07.528Z,95.14
2018-01-19T03:10:35.301Z,95.41
2018-01-19T03:13:03.037Z,95.61
2018-01-19T03:15:30.752Z,95.44
2018-01-19T03:17:58.546Z,95.43
2018-01-19T03:20:26.271Z,95.81
2018-01-19T03:22:54.016Z,95.96
2018-01-19T03:25:21.678Z,96.08
2018-01-19T03:27:49.460Z,95.97
2018-01-19T03:30:17.264Z,95.72
2018-01-19T03:32:44.954Z,95.38
2018-01-19T03:35:12.742Z,95.83
2018-01-19T03:37:40.516Z,95.93
2018-01-19T03:40:08.256Z,95.78
2018-01-19T03:42:35.980Z,95.70
2018-01-19T03:45:03.690Z,95.97
2018-01-19T03:47:31.394Z,96.10
2018-01-19T03:49:59.087Z,95.83
2018-01-19T03:52:26.933Z,95.57
2018-01-19T03:54:54.639Z,95.53
2018-01-19T03:57:22.469Z,95.72
2018-01-19T03:59:50.201Z,95.91
2018-01-19T04:02:18.062Z,95.80
2018-01-19T04:04:45.789Z,95.48
2018-01-19T04:07:13.582Z,95.52
2018-01-19T04:09:41.379Z,95.75
2018-01-19T04:12:09.158Z,95.93
2018-01-19T04:14:36.881Z,96.13
2018-01-19T04:17:04.656Z,96.07
2018-01-19T04:19:32.352Z,95.79
2018-01-19T04:22:00.106Z,95.72
2018-01-19T04:24:28.012Z,95.66
2018-01-19T04:26:55.769Z,95.61
2018-01-19T04:29:23.540Z,95.46
2018-01-19T04:31:51.215Z,95.17
2018-01-19T04:34:18.963Z,95.11
2018-01-19T04:36:47.270Z,94.94
2018-01-19T04:39:15.715Z,94.63
2018-01-19T04:41:43.432Z,94.93
2018-01-19T04:44:11.136Z,95.06
2018-01-19T04:46:38.889Z,95.13
2018-01-19T04:49:06.618Z,95.43
2018-01-19T04:51:34.357Z,95.84
2018-01-19T04:54:02.190Z,96.18
2018-01-19T04:56:30.580Z,96.01
2018-01-19T04:58:58.269Z,95.58
2018-01-19T05:01:25.962Z,95.42
2018-01-19T05:03:53.742Z,95.33
2018-01-19T05:06:21.489Z,95.62
2018-01-19T05:08:49.159Z,96.20
2018-01-19T05:11:16.914Z,96.23
2018-01-19T05:13:44.752Z,96.01
2018-01-19T05:16:12.482Z,95.73
2018-01-19T05:18:42.228Z,95.55
2018-01-19T05:21:09.979Z,95.30
2018-01-19T05:23:38.466Z,95.39
2018-01-19T05:26:06.268Z,95.55
2018-01-19T05:28:34.011Z,95.68
2018-01-19T05:31:01.739Z,95.59
2018-01-19T05:33:29.432Z,95.38
2018-01-19T05:35:57.208Z,95.71
2018-01-19T05:38:24.987Z,95.86
2018-01-19T05:40:52.773Z,96.06
2018-01-19T05:43:20.440Z,95.99
2018-01-19T05:45:48.241Z,95.71
2018-01-19T05:48:15.967Z,95.52
2018-01-19T05:50:43.675Z,95.64
2018-01-19T05:53:12.490Z,96.05
2018-01-19T05:55:40.242Z,96.25
2018-01-19T05:58:07.914Z,96.15
2018-01-19T06:00:35.658Z,95.96
2018-01-19T06:03:03.467Z,95.87
2018-01-19T06:05:31.179Z,95.91
2018-01-19T06:07:58.901Z,95.80
2018-01-19T06:10:26.590Z,95.37
2018-01-19T06:12:54.349Z,95.84
2018-01-19T06:15:22.036Z,96.45
2018-01-19T06:17:49.789Z,96.53
2018-01-19T06:20:17.473Z,96.52
2018-01-19T06:22:45.170Z,96.39
2018-01-19T06:25:12.882Z,96.14
2018-01-19T06:27:40.617Z,95.93
2018-01-19T06:30:08.386Z,95.86
2018-01-19T06:32:36.047Z,95.78
2018-01-19T06:35:03.789Z,95.79
2018-01-19T06:37:31.525Z,95.74
2018-01-19T06:39:59.212Z,95.64
2018-01-19T06:42:26.959Z,95.54
2018-01-19T06:44:54.682Z,95.59
2018-01-19T06:47:22.435Z,95.61
2018-01-19T06:49:50.272Z,95.55
2018-01-19T06:52:18.013Z,95.47
2018-01-19T06:54:45.777Z,95.92
2018-01-19T06:57:14.195Z,96.00
2018-01-19T06:59:42.046Z,95.87
2018-01-19T07:02:09.778Z,96.03
2018-01-19T07:04:37.500Z,95.99
2018-01-19T07:07:05.163Z,95.69
2018-01-19T07:09:32.932Z,95.30
2018-01-19T07:12:00.726Z,95.54
2018-01-19T07:14:28.410Z,95.62
2018-01-19T07:16:56.091Z,95.63
2018-01-19T07:19:23.814Z,95.51
2018-01-19T07:21:51.558Z,95.53
2018-01-19T07:24:19.363Z,95.55
2018-01-19T07:26:47.044Z,95.39
2018-01-19T07:29:14.802Z,95.13
2018-01-19T07:31:42.526Z,94.96
2018-01-19T07:34:10.405Z,95.03
2018-01-19T07:36:38.097Z,95.03
2018-01-19T07:39:05.934Z,95.50
2018-01-19T07:41:33.756Z,95.41
2018-01-19T07:44:01.512Z,95.14
2018-01-19T07:46:29.771Z,94.96
2018-01-19T07:48:57.709Z,95.26
2018-01-19T07:51:25.388Z,95.27
2018-01-19T07:53:53.148Z,95.22
2018-01-19T07:56:20.956Z,94.96
2018-01-19T07:58:48.651Z,94.83
2018-01-19T08:01:16.393Z,94.61
2018-01-19T08:03:44.231Z,94.51
2018-01-19T08:06:11.959Z,94.74
2018-01-19T08:08:39.699Z,94.59
2018-01-19T08:11:07.483Z,94.34
2018-01-19T08:13:35.237Z,93.79
2018-01-19T08:16:02.975Z,93.44
2018-01-19T08:18:30.705Z,92.45
2018-01-19T08:20:58.449Z,92.75
2018-01-19T08:23:26.165Z,92.84
2018-01-19T08:25:53.920Z,92.66
2018-01-19T08:28:21.793Z,92.41
2018-01-19T08:30:49.529Z,93.46
2018-01-19T08:33:17.247Z,93.51
2018-01-19T08:35:44.984Z,93.65
2018-01-19T08:38:12.757Z,93.66
2018-01-19T08:40:40.487Z,93.84
2018-01-19T08:43:08.240Z,93.66
2018-01-19T08:45:35.984Z,93.59
2018-01-19T08:48:03.680Z,93.39
2018-01-19T08:50:31.496Z,93.12
2018-01-19T08:52:59.303Z,93.07
2018-01-19T08:55:27.029Z,92.39
2018-01-19T08:57:54.769Z,91.93
2018-01-19T09:00:22.632Z,92.34
2018-01-19T09:02:50.417Z,92.52
2018-01-19T09:05:18.195Z,92.37
2018-01-19T09:07:46.000Z,90.29
2018-01-19T09:10:13.738Z,88.00
2018-01-19T09:12:41.507Z,88.13
2018-01-19T09:15:09.279Z,86.15
2018-01-19T09:17:36.980Z,84.21
2018-01-19T09:20:04.723Z,83.33
2018-01-19T09:22:32.467Z,84.02
2018-01-19T09:25:00.235Z,83.62
2018-01-19T09:27:29.231Z,81.58
2018-01-19T09:29:56.913Z,83.18
2018-01-19T09:32:24.647Z,80.84
2018-01-19T09:34:52.401Z,81.34
2018-01-19T09:37:20.087Z,82.30
2018-01-19T09:39:47.770Z,80.12
2018-01-19T09:42:15.563Z,79.12
2018-01-19T09:44:43.249Z,79.71
2018-01-19T09:47:11.011Z,78.85
2018-01-19T09:49:38.692Z,76.79
2018-01-19T09:52:06.416Z,76.80
2018-01-19T09:54:34.164Z,79.77
2018-01-19T09:57:01.963Z,77.65
2018-01-19T09:59:29.761Z,78.64
2018-01-19T10:01:57.463Z,79.50
2018-01-19T10:04:25.221Z,78.57
2018-01-19T10:06:52.930Z,77.95
2018-01-19T10:09:20.693Z,77.94
2018-01-19T10:11:48.402Z,79.92
2018-01-19T10:14:16.099Z,78.73
2018-01-19T10:16:43.918Z,79.57
2018-01-19T10:19:11.693Z,77.98
2018-01-19T10:21:39.409Z,79.00
2018-01-19T10:24:07.132Z,77.50
2018-01-19T10:26:34.835Z,77.47
2018-01-19T10:29:02.551Z,78.79
2018-01-19T10:31:30.246Z,79.46
2018-01-19T10:33:57.953Z,78.81
2018-01-19T10:36:25.694Z,79.91
2018-01-19T10:38:53.435Z,79.33
2018-01-19T10:41:21.144Z,79.83
2018-01-19T10:43:48.960Z,79.19
2018-01-19T10:46:16.639Z,80.19
2018-01-19T10:48:44.392Z,79.93
2018-01-19T10:51:13.103Z,82.95
2018-01-19T10:53:40.892Z,80.82
2018-01-19T10:56:08.564Z,76.97
2018-01-19T10:58:36.255Z,80.03
2018-01-19T11:01:04.017Z,80.99
2018-01-19T11:03:31.797Z,81.03
2018-01-19T11:05:59.525Z,81.61
2018-01-19T11:08:27.267Z,80.52
2018-01-19T11:10:55.018Z,76.83
2018-01-19T11:13:23.626Z,79.44
2018-01-19T11:15:51.413Z,80.99
2018-01-19T11:18:19.167Z,81.25
2018-01-19T11:20:46.878Z,80.44
2018-01-19T11:23:14.644Z,82.35
2018-01-19T11:25:43.631Z,73.70
2018-01-19T11:28:11.395Z,74.11
2018-01-19T11:30:39.156Z,72.82
2018-01-19T11:33:06.930Z,69.95
2018-01-19T11:35:34.702Z,66.46
2018-01-19T11:38:02.422Z,67.41
2018-01-19T11:40:30.118Z,69.69
2018-01-19T11:42:57.889Z,69.39
2018-01-19T11:45:25.652Z,65.47
2018-01-19T11:47:53.432Z,66.16
2018-01-19T11:50:21.152Z,66.05
2018-01-19T11:52:48.924Z,70.37
2018-01-19T11:55:16.685Z,67.06
2018-01-19T11:57:44.395Z,66.42
2018-01-19T12:00:12.144Z,68.77
2018-01-19T12:02:39.840Z,65.00
2018-01-19T12:05:07.599Z,69.06
2018-01-19T12:07:35.305Z,70.26
2018-01-19T12:10:03.057Z,68.46
2018-01-19T12:12:31.656Z,66.69
2018-01-19T12:14:59.512Z,67.50
2018-01-19T12:17:27.300Z,72.15
2018-01-19T12:19:55.176Z,72.93
2018-01-19T12:22:22.993Z,66.42
2018-01-19T12:24:50.781Z,67.51
2018-01-19T12:27:19.238Z,66.78
2018-01-19T12:29:46.994Z,67.30
2018-01-19T12:32:14.842Z,70.28
2018-01-19T12:34:42.574Z,63.32
2018-01-19T12:37:10.311Z,64.68
2018-01-19T12:39:38.100Z,65.11
2018-01-19T12:42:05.890Z,58.81
2018-01-19T12:44:34.594Z,56.46
2018-01-19T12:47:02.393Z,65.58
2018-01-19T12:49:30.096Z,63.19
2018-01-19T12:51:57.832Z,62.44
2018-01-19T12:54:25.571Z,61.63
2018-01-19T12:56:53.274Z,58.83
2018-01-19T12:59:21.024Z,60.62
2018-01-19T13:01:48.961Z,60.48
2018-01-19T13:04:16.790Z,56.64
2018-01-19T13:06:44.584Z,60.27
2018-01-19T13:09:12.363Z,55.95
2018-01-19T13:11:40.054Z,61.28
2018-01-19T13:14:07.827Z,58.11
2018-01-19T13:16:35.578Z,59.83
2018-01-19T13:19:03.339Z,61.54
2018-01-19T13:21:31.104Z,61.12
2018-01-19T13:23:58.845Z,64.11
2018-01-19T13:26:26.522Z,64.67
2018-01-19T13:28:54.364Z,62.96
2018-01-19T13:31:23.007Z,64.67
2018-01-19T13:33:50.816Z,65.09
2018-01-19T13:36:18.586Z,65.71
2018-01-19T13:38:46.346Z,64.10
2018-01-19T13:41:14.022Z,64.51
2018-01-19T13:43:41.897Z,65.26
2018-01-19T13:46:09.574Z,62.89
2018-01-19T13:48:37.644Z,64.59
2018-01-19T13:51:05.300Z,61.67
2018-01-19T13:53:33.017Z,62.61
2018-01-19T13:56:00.760Z,61.08
2018-01-19T13:58:28.416Z,62.23
2018-01-19T14:00:56.205Z,60.31
2018-01-19T14:03:23.990Z,62.11
2018-01-19T14:05:51.746Z,61.82
2018-01-19T14:08:19.529Z,66.91
2018-01-19T14:10:47.231Z,63.76
2018-01-19T14:13:14.971Z,68.39
2018-01-19T14:15:42.707Z,71.30
2018-01-19T14:18:10.486Z,69.43
2018-01-19T14:20:38.284Z,61.03
2018-01-19T14:23:06.047Z,65.51
2018-01-19T14:25:33.988Z,59.10
2018-01-19T14:28:01.663Z,62.78
2018-01-19T14:30:29.462Z,70.65
2018-01-19T14:32:57.222Z,74.24
2018-01-19T14:35:24.903Z,73.97
2018-01-19T14:37:52.653Z,69.76
2018-01-19T14:40:20.365Z,72.11
2018-01-19T14:42:48.118Z,74.93
2018-01-19T14:45:15.932Z,77.04
2018-01-19T14:47:43.698Z,68.31
2018-01-19T14:50:11.381Z,73.30
2018-01-19T14:52:39.224Z,72.30
2018-01-19T14:55:06.942Z,71.95
2018-01-19T14:57:34.821Z,71.58
2018-01-19T15:00:02.699Z,77.49
2018-01-19T15:02:30.482Z,68.59
2018-01-19T15:04:58.258Z,66.99
2018-01-19T15:07:26.008Z,74.99
2018-01-19T15:09:53.806Z,71.42
2018-01-19T15:12:21.585Z,70.30
2018-01-19T15:14:49.329Z,70.29
2018-01-19T15:17:17.152Z,73.36
2018-01-19T15:19:44.842Z,77.36
2018-01-19T15:22:12.539Z,78.76
2018-01-19T15:24:40.296Z,79.33
2018-01-19T15:27:08.522Z,79.46
2018-01-19T15:29:36.279Z,79.00
2018-01-19T15:32:03.963Z,76.43
2018-01-19T15:34:31.836Z,79.44
2018-01-19T15:36:59.551Z,81.49
2018-01-19T15:39:27.286Z,80.12
2018-01-19T15:41:55.048Z,81.59
2018-01-19T15:44:22.817Z,82.88
2018-01-19T15:46:50.602Z,82.90
2018-01-19T15:49:18.330Z,83.57
2018-01-19T15:51:46.148Z,83.06
2018-01-19T15:54:13.834Z,81.95
2018-01-19T15:56:41.622Z,82.69
2018-01-19T15:59:09.356Z,83.86
2018-01-19T16:01:37.112Z,84.99
2018-01-19T16:04:04.957Z,85.26
2018-01-19T16:06:32.700Z,84.92
2018-01-19T16:09:00.488Z,84.38
2018-01-19T16:11:28.291Z,83.19
2018-01-19T16:13:56.099Z,83.60
2018-01-19T16:16:23.944Z,86.25
2018-01-19T16:18:51.675Z,84.88
2018-01-19T16:21:19.444Z,84.87
2018-01-19T16:23:47.222Z,84.79
2018-01-19T16:26:14.959Z,83.76
2018-01-19T16:28:42.764Z,84.57
2018-01-19T16:31:10.474Z,85.13
2018-01-19T16:33:38.324Z,85.59
2018-01-19T16:36:06.078Z,85.12
2018-01-19T16:38:34.924Z,84.26
2018-01-19T16:41:02.677Z,84.70
2018-01-19T16:43:30.406Z,85.70
2018-01-19T16:45:58.082Z,86.24
2018-01-19T16:48:25.867Z,85.24
2018-01-19T16:50:53.675Z,83.49
2018-01-19T16:53:21.438Z,83.00
2018-01-19T16:55:49.283Z,83.93
2018-01-19T16:58:17.095Z,84.48
2018-01-19T17:00:46.030Z,85.01
2018-01-19T17:03:13.906Z,85.59
2018-01-19T17:05:42.036Z,84.86
2018-01-19T17:08:09.886Z,84.77
2018-01-19T17:10:37.721Z,84.74
2018-01-19T17:13:05.478Z,84.91
2018-01-19T17:15:33.303Z,84.61
2018-01-19T17:18:01.045Z,83.82
2018-01-19T17:20:28.806Z,84.61
2018-01-19T17:22:56.570Z,83.86
2018-01-19T17:25:24.300Z,85.48
2018-01-19T17:27:52.048Z,83.54
2018-01-19T17:30:20.369Z,84.01
2018-01-19T17:32:49.189Z,83.12
2018-01-19T17:35:17.202Z,84.06
2018-01-19T17:37:45.728Z,84.34
2018-01-19T17:40:13.477Z,83.11
2018-01-19T17:42:41.291Z,84.74
2018-01-19T17:45:09.076Z,83.53
2018-01-19T17:47:36.881Z,81.33
2018-01-19T17:50:04.687Z,78.84
2018-01-19T17:52:32.416Z,81.50
2018-01-19T17:55:00.205Z,76.16
2018-01-19T17:57:27.960Z,76.15
2018-01-19T17:59:55.810Z,79.03
2018-01-19T18:02:23.657Z,79.70
2018-01-19T18:04:51.573Z,80.19
2018-01-19T18:07:19.400Z,79.73
2018-01-19T18:09:47.186Z,81.31
2018-01-19T18:12:14.888Z,82.07
2018-01-19T18:14:42.691Z,78.53
2018-01-19T18:17:10.473Z,81.17
2018-01-19T18:19:38.197Z,82.58
2018-01-19T18:22:05.943Z,83.45
2018-01-19T18:24:33.717Z,84.24
2018-01-19T18:27:01.464Z,85.14
2018-01-19T18:29:29.353Z,85.31
2018-01-19T18:31:57.065Z,85.80
2018-01-19T18:34:24.852Z,85.77
2018-01-19T18:36:52.558Z,85.52
2018-01-19T18:39:20.264Z,85.93
2018-01-19T18:41:48.146Z,85.97
2018-01-19T18:44:15.956Z,85.09
2018-01-19T18:46:46.796Z,83.28
2018-01-19T18:49:14.576Z,83.42
2018-01-19T18:51:42.428Z,84.08
2018-01-19T18:54:11.500Z,84.03
2018-01-19T18:56:39.257Z,84.66
2018-01-19T18:59:07.010Z,84.42
2018-01-19T19:01:34.928Z,85.74
2018-01-19T19:04:04.276Z,86.79
2018-01-19T19:06:32.205Z,86.55
2018-01-19T19:09:00.352Z,86.52
2018-01-19T19:11:31.703Z,86.76
2018-01-19T19:13:59.443Z,87.51
2018-01-19T19:16:27.539Z,87.88
2018-01-19T19:18:55.398Z,87.58
2018-01-19T19:21:24.003Z,88.10
2018-01-19T19:23:51.854Z,87.61
2018-01-19T19:26:19.548Z,88.39
2018-01-19T19:28:47.656Z,88.16
2018-01-19T19:31:16.015Z,88.48
2018-01-19T19:33:43.764Z,87.42
2018-01-19T19:36:11.690Z,86.25
2018-01-19T19:38:40.381Z,86.96
2018-01-19T19:41:08.201Z,88.06
2018-01-19T19:43:36.184Z,87.53
2018-01-19T19:46:04.039Z,87.17
2018-01-19T19:48:32.063Z,86.97
2018-01-19T19:50:59.837Z,87.10
2018-01-19T19:53:27.693Z,87.15
2018-01-19T19:55:55.600Z,87.04
2018-01-19T19:58:23.651Z,87.32
2018-01-19T20:00:51.555Z,87.76
2018-01-19T20:03:19.784Z,87.25
2018-01-19T20:05:47.770Z,87.06
2018-01-19T20:08:15.919Z,87.71
2018-01-19T20:10:45.445Z,87.85
2018-01-19T20:13:13.329Z,88.24
2018-01-19T20:15:41.107Z,88.09
2018-01-19T20:18:08.822Z,88.04
2018-01-19T20:20:36.621Z,88.81
2018-01-19T20:23:04.384Z,88.89
2018-01-19T20:25:33.377Z,89.53
2018-01-19T20:28:02.701Z,89.79
2018-01-19T20:30:30.527Z,88.85
2018-01-19T20:32:58.343Z,88.80
2018-01-19T20:35:26.134Z,88.93
2018-01-19T20:37:53.941Z,89.03
2018-01-19T20:40:21.914Z,89.58
2018-01-19T20:42:50.920Z,89.41
2018-01-19T20:45:18.675Z,89.67
2018-01-19T20:47:46.419Z,88.94
2018-01-19T20:50:14.259Z,88.64
2018-01-19T20:52:42.044Z,88.19
2018-01-19T20:55:09.747Z,88.52
2018-01-19T20:57:37.457Z,88.17
2018-01-19T21:00:05.205Z,88.73
2018-01-19T21:02:32.893Z,88.11
2018-01-19T21:05:00.700Z,88.31
2018-01-19T21:07:28.525Z,88.96
2018-01-19T21:09:56.346Z,89.24
2018-01-19T21:12:24.023Z,89.29
2018-01-19T21:14:52.086Z,89.30
2018-01-19T21:17:20.438Z,89.32
2018-01-19T21:19:48.182Z,89.38
2018-01-19T21:22:15.900Z,89.20
2018-01-19T21:24:43.640Z,88.99
2018-01-19T21:27:11.398Z,89.50
2018-01-19T21:29:39.117Z,89.76
2018-01-19T21:32:06.927Z,89.34
2018-01-19T21:34:34.698Z,89.18
2018-01-19T21:37:02.614Z,89.43
2018-01-19T21:39:30.402Z,89.77
2018-01-19T21:41:58.133Z,89.88
2018-01-19T21:44:25.857Z,89.84
2018-01-19T21:46:53.568Z,90.14
2018-01-19T21:49:21.552Z,90.03
2018-01-19T21:51:49.277Z,89.98
2018-01-19T21:54:16.976Z,90.01
2018-01-19T21:56:44.740Z,89.83
2018-01-19T21:59:12.464Z,89.72
2018-01-19T22:01:40.208Z,89.86
2018-01-19T22:04:07.994Z,89.87
2018-01-19T22:06:35.772Z,89.80
2018-01-19T22:09:03.679Z,90.17
2018-01-19T22:11:31.445Z,90.39
2018-01-19T22:13:59.169Z,90.17
2018-01-19T22:16:26.851Z,90.43
2018-01-19T22:18:54.592Z,90.27
2018-01-19T22:21:22.349Z,90.60
2018-01-19T22:23:50.021Z,90.98
2018-01-19T22:26:17.744Z,90.88
2018-01-19T22:28:45.484Z,90.64
2018-01-19T22:31:13.179Z,90.79
2018-01-19T22:33:41.014Z,90.99
2018-01-19T22:36:08.725Z,90.77
2018-01-19T22:38:36.486Z,90.70
2018-01-19T22:41:04.151Z,90.58
2018-01-19T22:43:31.870Z,90.24
2018-01-19T22:45:59.579Z,90.20
2018-01-19T22:48:27.310Z,90.35
2018-01-19T22:50:54.993Z,90.39
2018-01-19T22:53:23.608Z,89.96
2018-01-19T22:55:51.330Z,90.14
2018-01-19T22:58:19.029Z,90.70
2018-01-19T23:00:46.784Z,90.53
2018-01-19T23:03:14.516Z,89.86
2018-01-19T23:05:42.259Z,90.16
2018-01-19T23:08:09.990Z,90.71
2018-01-19T23:10:37.696Z,91.20
2018-01-19T23:13:05.451Z,91.56
2018-01-19T23:15:33.213Z,91.58
2018-01-19T23:18:00.934Z,91.21
2018-01-19T23:20:31.440Z,91.08
2018-01-19T23:23:01.204Z,90.87
2018-01-19T23:25:29.164Z,90.82
2018-01-19T23:27:56.983Z,90.73
2018-01-19T23:30:24.921Z,90.33
2018-01-19T23:32:52.707Z,90.47
2018-01-19T23:35:20.692Z,90.52
2018-01-19T23:37:49.859Z,90.71
2018-01-19T23:40:17.694Z,90.60
2018-01-19T23:42:45.567Z,90.42
2018-01-19T23:45:13.401Z,90.39
2018-01-19T23:47:41.105Z,90.54
2018-01-19T23:50:08.819Z,90.53
2018-01-19T23:52:36.526Z,91.14
2018-01-19T23:55:04.283Z,91.17
2018-01-19T23:57:32.011Z,91.20
2018-01-19T23:59:59.703Z,91.02
